Aeroporto :
LOGIN :

Iscrizione | Disclaimer

   EN    FR    IT 

 










Sommario :    VFR   VFR Marginale   IFR   IFR Intensivo   IFR Molto Intensivo
Visibilità : 
Base nubi : 
>= 8 km
>= 3000ft
5 / 8 km
1000 / 3000 ft
1500m / 5 km
500 / 1000 ft
800 / 1500m
200 / 500 ft
< 800m
< 200 ft
Simboli :   Temporali  Nebbia  Neve Forte  Precipitazioni Forti  Vento > 20 kt
SIGMETs :   Varie  Temporali  Ghiacco  Turbolenza  Onda orograficha  Ceneri Vulcaniche






- Altitudine del aeroporto : 174 ft
- Codice IATA : RYG


ENRY - Moss , Rygge

ULTIMO METAR :
  • 031920Z AUTO 28011KT 9999NDV NCD 03/M10 Q1007

METARs OBSOLETI :
  • 031850Z AUTO 29012KT 9999NDV NCD 04/M11 Q1006
  • 031820Z AUTO 30010KT 9999NDV NCD 04/M11 Q1005
  • 031750Z 29013KT CAVOK 05/M12 Q1005
  • 031720Z 29014KT CAVOK 06/M12 Q1004
  • 031650Z 29016G29KT CAVOK 06/M12 Q1004

TAF TAF ENRY
Valido dal 03 a 18 ore il 04 a 18 ore UTC


0318/0418 29008KT CAVOK
BECMG 0410/0412 20010KT



MetMap, La meteo Aeronautica in un colpo d'occhio ! - Copyright ORBIFLY Dicembre 2007 - Disclaimer

ORBIFLY MET'MAP TEAM :

Programmazione e sviluppo : Alexandra Zaïnal
Concezione : Baudouin d'Aumeries
Aiuto per la programmazione : Marc-Olivier Méhu
Supporto tecnico e logistico : Manuel Goepfert
Aiuto per la traduzione : Arnaldo La Scala

Contatto : metmap@orbifly.com




FONTI E CREDITI :

   NOAA